sensor_id;sensor_type;location;lat;lon;timestamp;pressure;altitude;pressure_sealevel;temperature;humidity
9257;BME280;4665;51.368;6.782;2022-08-04T00:02:24;100970.34;;;22.78;71.74
9257;BME280;4665;51.368;6.782;2022-08-04T00:04:59;100965.13;;;22.76;70.28
9257;BME280;4665;51.368;6.782;2022-08-04T00:07:40;100963.16;;;22.83;69.62
9257;BME280;4665;51.368;6.782;2022-08-04T00:10:07;100958.44;;;22.90;68.99
9257;BME280;4665;51.368;6.782;2022-08-04T00:12:36;100956.69;;;22.96;68.26
9257;BME280;4665;51.368;6.782;2022-08-04T00:15:05;100958.28;;;23.04;67.65
9257;BME280;4665;51.368;6.782;2022-08-04T00:17:38;100947.31;;;23.10;67.18
9257;BME280;4665;51.368;6.782;2022-08-04T00:20:05;100953.56;;;23.11;67.40
9257;BME280;4665;51.368;6.782;2022-08-04T00:22:33;100953.81;;;23.09;67.05
9257;BME280;4665;51.368;6.782;2022-08-04T00:25:01;100957.13;;;23.12;67.46
9257;BME280;4665;51.368;6.782;2022-08-04T00:27:31;100969.03;;;23.10;68.85
9257;BME280;4665;51.368;6.782;2022-08-04T00:29:57;100963.47;;;23.05;69.67
9257;BME280;4665;51.368;6.782;2022-08-04T00:32:25;100958.16;;;22.99;69.33
9257;BME280;4665;51.368;6.782;2022-08-04T00:34:52;100958.53;;;23.02;69.04
9257;BME280;4665;51.368;6.782;2022-08-04T00:37:23;100955.81;;;23.02;68.76
9257;BME280;4665;51.368;6.782;2022-08-04T00:39:50;100950.38;;;23.02;68.48
9257;BME280;4665;51.368;6.782;2022-08-04T00:42:41;100950.38;;;23.02;67.84
9257;BME280;4665;51.368;6.782;2022-08-04T00:51:06;100933.69;;;22.99;69.46
9257;BME280;4665;51.368;6.782;2022-08-04T00:54:03;100934.25;;;22.89;69.89
9257;BME280;4665;51.368;6.782;2022-08-04T00:59:33;100932.69;;;22.81;70.35
9257;BME280;4665;51.368;6.782;2022-08-04T01:05:05;100937.63;;;22.73;71.26
9257;BME280;4665;51.368;6.782;2022-08-04T01:10:31;100935.81;;;22.66;72.57
9257;BME280;4665;51.368;6.782;2022-08-04T01:16:02;100922.47;;;22.65;70.77
9257;BME280;4665;51.368;6.782;2022-08-04T01:23:50;100909.75;;;22.65;71.61
9257;BME280;4665;51.368;6.782;2022-08-04T01:29:30;100904.31;;;22.65;69.98
9257;BME280;4665;51.368;6.782;2022-08-04T01:34:29;100891.91;;;22.69;70.36
9257;BME280;4665;51.368;6.782;2022-08-04T01:39:49;100896.16;;;22.65;71.30
9257;BME280;4665;51.368;6.782;2022-08-04T01:42:19;100890.03;;;22.58;72.34
9257;BME280;4665;51.368;6.782;2022-08-04T01:44:47;100888.34;;;22.57;71.54
9257;BME280;4665;51.368;6.782;2022-08-04T01:47:13;100885.03;;;22.55;71.98
9257;BME280;4665;51.368;6.782;2022-08-04T01:49:43;100884.00;;;22.56;71.50
9257;BME280;4665;51.368;6.782;2022-08-04T01:52:15;100881.72;;;22.53;71.32
9257;BME280;4665;51.368;6.782;2022-08-04T01:54:41;100885.50;;;22.52;71.54
9257;BME280;4665;51.368;6.782;2022-08-04T01:57:09;100885.50;;;22.52;72.07
9257;BME280;4665;51.368;6.782;2022-08-04T01:59:34;100892.44;;;22.48;71.65
9257;BME280;4665;51.368;6.782;2022-08-04T02:02:01;100885.13;;;22.48;71.98
9257;BME280;4665;51.368;6.782;2022-08-04T02:04:26;100875.94;;;22.50;71.94
9257;BME280;4665;51.368;6.782;2022-08-04T02:15:27;100875.56;;;22.46;71.94
9257;BME280;4665;51.368;6.782;2022-08-04T02:18:04;100863.53;;;22.42;71.93
9257;BME280;4665;51.368;6.782;2022-08-04T02:20:37;100865.41;;;22.41;71.94
9257;BME280;4665;51.368;6.782;2022-08-04T02:23:17;100868.38;;;22.40;72.80
9257;BME280;4665;51.368;6.782;2022-08-04T02:25:54;100869.88;;;22.36;73.26
9257;BME280;4665;51.368;6.782;2022-08-04T02:33:25;100866.19;;;22.30;74.08
9257;BME280;4665;51.368;6.782;2022-08-04T02:35:57;100865.34;;;22.30;74.04
9257;BME280;4665;51.368;6.782;2022-08-04T02:40:58;100864.16;;;22.25;75.16
9257;BME280;4665;51.368;6.782;2022-08-04T02:43:27;100862.13;;;22.21;74.91
9257;BME280;4665;51.368;6.782;2022-08-04T02:45:55;100857.84;;;22.13;74.41
9257;BME280;4665;51.368;6.782;2022-08-04T02:48:23;100865.63;;;22.10;74.56
9257;BME280;4665;51.368;6.782;2022-08-04T02:50:50;100859.81;;;22.06;74.67
9257;BME280;4665;51.368;6.782;2022-08-04T02:53:20;100860.50;;;22.01;74.08
9257;BME280;4665;51.368;6.782;2022-08-04T02:55:46;100863.28;;;21.95;74.58
9257;BME280;4665;51.368;6.782;2022-08-04T02:58:14;100858.69;;;21.95;74.16
9257;BME280;4665;51.368;6.782;2022-08-04T03:00:41;100857.84;;;21.95;73.59
9257;BME280;4665;51.368;6.782;2022-08-04T03:03:20;100854.09;;;21.96;73.22
9257;BME280;4665;51.368;6.782;2022-08-04T03:06:03;100856.81;;;21.96;73.19
9257;BME280;4665;51.368;6.782;2022-08-04T03:20:33;100855.03;;;21.71;76.07
9257;BME280;4665;51.368;6.782;2022-08-04T03:29:05;100847.97;;;21.52;77.69
9257;BME280;4665;51.368;6.782;2022-08-04T03:42:38;100842.78;;;21.25;80.71
9257;BME280;4665;51.368;6.782;2022-08-04T03:45:48;100847.44;;;21.18;82.31
9257;BME280;4665;51.368;6.782;2022-08-04T03:48:58;100849.97;;;21.13;82.56
9257;BME280;4665;51.368;6.782;2022-08-04T03:59:54;100843.03;;;20.98;82.88
9257;BME280;4665;51.368;6.782;2022-08-04T04:13:33;100837.81;;;20.72;84.85
9257;BME280;4665;51.368;6.782;2022-08-04T04:16:23;100843.69;;;20.69;85.04
9257;BME280;4665;51.368;6.782;2022-08-04T04:22:28;100832.53;;;20.52;85.63
9257;BME280;4665;51.368;6.782;2022-08-04T04:25:03;100836.28;;;20.57;85.92
9257;BME280;4665;51.368;6.782;2022-08-04T04:30:18;100847.09;;;20.51;87.11
9257;BME280;4665;51.368;6.782;2022-08-04T04:33:01;100844.63;;;20.49;87.17
9257;BME280;4665;51.368;6.782;2022-08-04T04:41:35;100851.91;;;20.49;88.07
9257;BME280;4665;51.368;6.782;2022-08-04T04:44:19;100852.56;;;20.44;88.55
9257;BME280;4665;51.368;6.782;2022-08-04T04:49:56;100854.47;;;20.37;89.89
9257;BME280;4665;51.368;6.782;2022-08-04T04:55:17;100854.09;;;20.33;91.10
9257;BME280;4665;51.368;6.782;2022-08-04T04:57:47;100846.81;;;20.34;90.86
9257;BME280;4665;51.368;6.782;2022-08-04T05:00:15;100852.59;;;20.37;91.15
9257;BME280;4665;51.368;6.782;2022-08-04T05:11:19;100844.28;;;20.39;92.32
9257;BME280;4665;51.368;6.782;2022-08-04T05:13:51;100855.50;;;20.43;92.95
9257;BME280;4665;51.368;6.782;2022-08-04T05:16:29;100845.53;;;20.36;93.35
9257;BME280;4665;51.368;6.782;2022-08-04T05:19:21;100862.56;;;20.44;93.45
9257;BME280;4665;51.368;6.782;2022-08-04T05:21:52;100853.16;;;20.46;93.63
9257;BME280;4665;51.368;6.782;2022-08-04T05:24:22;100854.59;;;20.49;93.87
9257;BME280;4665;51.368;6.782;2022-08-04T05:26:55;100856.66;;;20.53;93.87
9257;BME280;4665;51.368;6.782;2022-08-04T05:29:30;100863.34;;;20.57;93.16
9257;BME280;4665;51.368;6.782;2022-08-04T05:31:58;100862.47;;;20.64;92.43
9257;BME280;4665;51.368;6.782;2022-08-04T05:34:33;100868.88;;;20.69;91.84
9257;BME280;4665;51.368;6.782;2022-08-04T05:37:02;100862.78;;;20.74;91.37
9257;BME280;4665;51.368;6.782;2022-08-04T05:39:40;100863.56;;;20.81;90.82
9257;BME280;4665;51.368;6.782;2022-08-04T05:42:08;100867.06;;;20.88;87.98
9257;BME280;4665;51.368;6.782;2022-08-04T05:44:36;100863.25;;;20.96;87.50
9257;BME280;4665;51.368;6.782;2022-08-04T05:47:03;100863.78;;;21.05;86.22
9257;BME280;4665;51.368;6.782;2022-08-04T05:49:29;100864.56;;;21.12;85.45
9257;BME280;4665;51.368;6.782;2022-08-04T05:52:01;100865.34;;;21.19;84.89
9257;BME280;4665;51.368;6.782;2022-08-04T05:54:30;100863.81;;;21.23;84.87
9257;BME280;4665;51.368;6.782;2022-08-04T05:56:57;100859.41;;;21.29;84.13
9257;BME280;4665;51.368;6.782;2022-08-04T05:59:24;100851.50;;;21.27;83.88
9257;BME280;4665;51.368;6.782;2022-08-04T06:01:50;100860.53;;;21.39;82.67
9257;BME280;4665;51.368;6.782;2022-08-04T06:04:18;100859.22;;;21.49;82.71
9257;BME280;4665;51.368;6.782;2022-08-04T06:06:47;100852.91;;;21.55;82.34
9257;BME280;4665;51.368;6.782;2022-08-04T06:09:13;100855.34;;;21.63;82.03
9257;BME280;4665;51.368;6.782;2022-08-04T06:11:39;100858.94;;;21.75;81.75
9257;BME280;4665;51.368;6.782;2022-08-04T06:14:08;100854.72;;;21.79;81.21
9257;BME280;4665;51.368;6.782;2022-08-04T06:16:38;100850.66;;;21.89;81.18
9257;BME280;4665;51.368;6.782;2022-08-04T06:19:09;100854.47;;;21.99;81.29
9257;BME280;4665;51.368;6.782;2022-08-04T06:21:42;100834.06;;;21.97;81.19
9257;BME280;4665;51.368;6.782;2022-08-04T06:24:11;100856.25;;;22.24;80.41
9257;BME280;4665;51.368;6.782;2022-08-04T06:26:37;100846.06;;;22.38;79.88
9257;BME280;4665;51.368;6.782;2022-08-04T06:29:05;100848.31;;;22.53;79.24
9257;BME280;4665;51.368;6.782;2022-08-04T06:31:39;100854.28;;;22.73;78.05
9257;BME280;4665;51.368;6.782;2022-08-04T06:34:21;100857.84;;;22.85;76.90
9257;BME280;4665;51.368;6.782;2022-08-04T06:36:47;100857.25;;;22.95;74.72
9257;BME280;4665;51.368;6.782;2022-08-04T06:39:14;100854.34;;;23.08;75.86
9257;BME280;4665;51.368;6.782;2022-08-04T06:41:39;100857.31;;;23.19;75.06
9257;BME280;4665;51.368;6.782;2022-08-04T06:44:08;100848.31;;;23.30;72.48
9257;BME280;4665;51.368;6.782;2022-08-04T06:46:36;100852.31;;;23.51;71.78
9257;BME280;4665;51.368;6.782;2022-08-04T06:49:02;100842.13;;;23.70;68.10
9257;BME280;4665;51.368;6.782;2022-08-04T06:51:30;100851.50;;;24.03;66.38
9257;BME280;4665;51.368;6.782;2022-08-04T06:53:57;100849.59;;;24.32;64.12
9257;BME280;4665;51.368;6.782;2022-08-04T06:56:23;100840.81;;;24.42;63.95
9257;BME280;4665;51.368;6.782;2022-08-04T06:58:51;100838.28;;;24.52;62.49
9257;BME280;4665;51.368;6.782;2022-08-04T07:01:20;100842.91;;;24.68;61.06
9257;BME280;4665;51.368;6.782;2022-08-04T07:03:47;100850.25;;;24.85;61.18
9257;BME280;4665;51.368;6.782;2022-08-04T07:06:13;100836.13;;;24.88;61.17
9257;BME280;4665;51.368;6.782;2022-08-04T07:08:39;100850.00;;;25.03;60.35
9257;BME280;4665;51.368;6.782;2022-08-04T07:11:05;100840.34;;;25.12;59.08
9257;BME280;4665;51.368;6.782;2022-08-04T07:13:31;100849.84;;;25.27;57.91
9257;BME280;4665;51.368;6.782;2022-08-04T07:15:58;100835.16;;;25.28;57.86
9257;BME280;4665;51.368;6.782;2022-08-04T07:18:24;100833.13;;;25.40;58.70
9257;BME280;4665;51.368;6.782;2022-08-04T07:20:50;100832.59;;;25.43;57.12
9257;BME280;4665;51.368;6.782;2022-08-04T07:23:16;100835.31;;;25.60;56.37
9257;BME280;4665;51.368;6.782;2022-08-04T07:25:42;100840.13;;;25.75;55.76
9257;BME280;4665;51.368;6.782;2022-08-04T07:28:08;100839.41;;;25.85;54.75
9257;BME280;4665;51.368;6.782;2022-08-04T07:30:34;100845.31;;;25.98;54.69
9257;BME280;4665;51.368;6.782;2022-08-04T07:33:01;100825.09;;;25.94;54.26
9257;BME280;4665;51.368;6.782;2022-08-04T07:35:28;100843.22;;;26.06;54.42
9257;BME280;4665;51.368;6.782;2022-08-04T07:37:53;100853.22;;;26.22;53.75
9257;BME280;4665;51.368;6.782;2022-08-04T07:40:19;100834.13;;;26.22;52.60
9257;BME280;4665;51.368;6.782;2022-08-04T07:42:45;100851.78;;;26.41;53.53
9257;BME280;4665;51.368;6.782;2022-08-04T07:45:10;100864.34;;;26.42;52.89
9257;BME280;4665;51.368;6.782;2022-08-04T07:47:36;100842.91;;;26.29;52.02
9257;BME280;4665;51.368;6.782;2022-08-04T07:50:07;100867.84;;;26.38;53.40
9257;BME280;4665;51.368;6.782;2022-08-04T07:52:33;100869.19;;;26.35;52.90
9257;BME280;4665;51.368;6.782;2022-08-04T07:54:59;100867.03;;;26.37;53.00
9257;BME280;4665;51.368;6.782;2022-08-04T07:57:24;100877.56;;;26.51;53.91
9257;BME280;4665;51.368;6.782;2022-08-04T07:59:50;100864.00;;;26.61;53.29
9257;BME280;4665;51.368;6.782;2022-08-04T08:02:17;100867.34;;;26.68;53.31
9257;BME280;4665;51.368;6.782;2022-08-04T08:04:45;100857.00;;;26.70;54.06
9257;BME280;4665;51.368;6.782;2022-08-04T08:07:11;100849.41;;;26.77;53.07
9257;BME280;4665;51.368;6.782;2022-08-04T08:09:36;100855.56;;;26.95;53.07
9257;BME280;4665;51.368;6.782;2022-08-04T08:12:02;100869.88;;;27.12;53.29
9257;BME280;4665;51.368;6.782;2022-08-04T08:14:29;100852.44;;;27.18;52.66
9257;BME280;4665;51.368;6.782;2022-08-04T08:16:57;100835.84;;;27.25;53.17
9257;BME280;4665;51.368;6.782;2022-08-04T08:19:23;100835.63;;;27.42;53.46
9257;BME280;4665;51.368;6.782;2022-08-04T08:21:48;100833.25;;;27.61;51.32
9257;BME280;4665;51.368;6.782;2022-08-04T08:24:15;100834.41;;;27.80;52.24
9257;BME280;4665;51.368;6.782;2022-08-04T08:26:41;100831.78;;;28.01;49.17
9257;BME280;4665;51.368;6.782;2022-08-04T08:29:06;100830.72;;;28.12;49.48
9257;BME280;4665;51.368;6.782;2022-08-04T08:31:33;100842.47;;;28.12;49.33
9257;BME280;4665;51.368;6.782;2022-08-04T08:33:59;100844.16;;;28.19;51.26
9257;BME280;4665;51.368;6.782;2022-08-04T08:36:36;100848.56;;;28.25;50.28
9257;BME280;4665;51.368;6.782;2022-08-04T08:39:21;100837.91;;;28.39;47.63
9257;BME280;4665;51.368;6.782;2022-08-04T08:47:38;100850.25;;;28.46;46.81
9257;BME280;4665;51.368;6.782;2022-08-04T08:53:02;100855.19;;;28.65;45.54
9257;BME280;4665;51.368;6.782;2022-08-04T09:00:52;100848.59;;;28.86;45.93
9257;BME280;4665;51.368;6.782;2022-08-04T09:03:45;100849.72;;;28.80;46.18
9257;BME280;4665;51.368;6.782;2022-08-04T09:12:29;100848.06;;;28.79;46.85
9257;BME280;4665;51.368;6.782;2022-08-04T09:17:38;100848.91;;;28.69;47.17
9257;BME280;4665;51.368;6.782;2022-08-04T09:20:09;100851.63;;;28.64;46.44
9257;BME280;4665;51.368;6.782;2022-08-04T09:25:23;100858.75;;;28.55;47.85
9257;BME280;4665;51.368;6.782;2022-08-04T09:28:18;100867.78;;;28.56;47.18
9257;BME280;4665;51.368;6.782;2022-08-04T09:30:53;100866.72;;;28.67;47.10
9257;BME280;4665;51.368;6.782;2022-08-04T09:38:50;100862.31;;;28.76;48.31
9257;BME280;4665;51.368;6.782;2022-08-04T09:42:00;100863.41;;;29.06;46.47
9257;BME280;4665;51.368;6.782;2022-08-04T09:44:33;100860.94;;;29.14;47.50
9257;BME280;4665;51.368;6.782;2022-08-04T09:52:35;100868.28;;;29.50;46.67
9257;BME280;4665;51.368;6.782;2022-08-04T09:55:12;100870.41;;;29.68;44.06
9257;BME280;4665;51.368;6.782;2022-08-04T10:00:19;100871.63;;;30.07;41.46
9257;BME280;4665;51.368;6.782;2022-08-04T10:02:52;100875.69;;;30.19;41.14
9257;BME280;4665;51.368;6.782;2022-08-04T10:05:25;100881.91;;;30.35;40.87
9257;BME280;4665;51.368;6.782;2022-08-04T10:08:17;100873.88;;;30.44;41.77
9257;BME280;4665;51.368;6.782;2022-08-04T10:10:54;100880.50;;;30.43;41.53
9257;BME280;4665;51.368;6.782;2022-08-04T10:19:00;100866.22;;;30.41;42.05
9257;BME280;4665;51.368;6.782;2022-08-04T10:21:41;100878.84;;;30.42;41.51
9257;BME280;4665;51.368;6.782;2022-08-04T10:26:55;100872.59;;;30.31;42.40
9257;BME280;4665;51.368;6.782;2022-08-04T10:29:43;100873.16;;;30.33;42.61
9257;BME280;4665;51.368;6.782;2022-08-04T10:34:42;100875.63;;;30.25;42.86
9257;BME280;4665;51.368;6.782;2022-08-04T10:37:23;100883.06;;;30.24;42.74
9257;BME280;4665;51.368;6.782;2022-08-04T10:40:02;100882.53;;;30.17;43.32
9257;BME280;4665;51.368;6.782;2022-08-04T10:43:14;100886.13;;;30.12;43.74
9257;BME280;4665;51.368;6.782;2022-08-04T10:45:48;100886.34;;;30.21;43.15
9257;BME280;4665;51.368;6.782;2022-08-04T10:53:43;100889.28;;;30.45;42.48
9257;BME280;4665;51.368;6.782;2022-08-04T10:56:18;100894.28;;;30.72;41.86
9257;BME280;4665;51.368;6.782;2022-08-04T10:58:53;100890.31;;;30.94;41.81
9257;BME280;4665;51.368;6.782;2022-08-04T11:01:26;100907.19;;;31.11;41.86
9257;BME280;4665;51.368;6.782;2022-08-04T11:04:03;100900.91;;;31.06;42.66
9257;BME280;4665;51.368;6.782;2022-08-04T11:06:31;100900.44;;;30.98;41.03
9257;BME280;4665;51.368;6.782;2022-08-04T11:08:59;100894.47;;;30.86;42.32
9257;BME280;4665;51.368;6.782;2022-08-04T11:11:44;100900.53;;;30.83;41.12
9257;BME280;4665;51.368;6.782;2022-08-04T11:14:14;100895.94;;;30.73;40.83
9257;BME280;4665;51.368;6.782;2022-08-04T11:16:53;100899.28;;;30.65;42.01
9257;BME280;4665;51.368;6.782;2022-08-04T11:20:01;100899.53;;;30.69;41.54
9257;BME280;4665;51.368;6.782;2022-08-04T11:22:29;100906.97;;;30.68;41.33
9257;BME280;4665;51.368;6.782;2022-08-04T11:24:58;100912.16;;;30.70;41.49
9257;BME280;4665;51.368;6.782;2022-08-04T11:27:28;100927.91;;;30.64;40.91
9257;BME280;4665;51.368;6.782;2022-08-04T11:30:03;100922.16;;;30.55;41.69
9257;BME280;4665;51.368;6.782;2022-08-04T11:35:28;100938.50;;;30.36;40.10
9257;BME280;4665;51.368;6.782;2022-08-04T11:38:08;100931.66;;;30.24;41.56
9257;BME280;4665;51.368;6.782;2022-08-04T11:40:56;100926.47;;;30.17;40.13
9257;BME280;4665;51.368;6.782;2022-08-04T11:43:34;100935.91;;;30.06;41.51
9257;BME280;4665;51.368;6.782;2022-08-04T11:46:04;100921.63;;;29.98;41.56
9257;BME280;4665;51.368;6.782;2022-08-04T11:48:36;100936.66;;;30.16;41.14
9257;BME280;4665;51.368;6.782;2022-08-04T11:51:02;100920.78;;;30.08;42.19
9257;BME280;4665;51.368;6.782;2022-08-04T11:53:30;100921.63;;;30.04;43.53
9257;BME280;4665;51.368;6.782;2022-08-04T11:56:01;100923.00;;;30.01;42.90
9257;BME280;4665;51.368;6.782;2022-08-04T11:58:28;100927.69;;;29.95;43.46
9257;BME280;4665;51.368;6.782;2022-08-04T12:03:45;100947.72;;;29.96;45.44
9257;BME280;4665;51.368;6.782;2022-08-04T12:06:28;100953.81;;;29.88;45.16
9257;BME280;4665;51.368;6.782;2022-08-04T12:17:10;100945.09;;;29.50;43.51
9257;BME280;4665;51.368;6.782;2022-08-04T12:19:49;100947.28;;;29.37;44.56
9257;BME280;4665;51.368;6.782;2022-08-04T12:22:18;100959.41;;;29.31;44.94
9257;BME280;4665;51.368;6.782;2022-08-04T12:24:46;100942.38;;;29.14;45.48
9257;BME280;4665;51.368;6.782;2022-08-04T12:27:19;100945.13;;;29.19;46.22
9257;BME280;4665;51.368;6.782;2022-08-04T12:29:46;100937.47;;;29.11;46.01
9257;BME280;4665;51.368;6.782;2022-08-04T12:32:22;100944.31;;;29.13;46.44
9257;BME280;4665;51.368;6.782;2022-08-04T12:35:24;100938.53;;;29.10;45.89
9257;BME280;4665;51.368;6.782;2022-08-04T12:37:57;100951.16;;;29.06;46.32
9257;BME280;4665;51.368;6.782;2022-08-04T12:40:30;100940.19;;;29.06;47.30
9257;BME280;4665;51.368;6.782;2022-08-04T12:43:07;100942.41;;;29.09;49.32
9257;BME280;4665;51.368;6.782;2022-08-04T12:45:34;100943.47;;;29.08;50.28
9257;BME280;4665;51.368;6.782;2022-08-04T12:48:03;100941.03;;;29.11;50.59
9257;BME280;4665;51.368;6.782;2022-08-04T12:50:30;100938.56;;;29.15;50.82
9257;BME280;4665;51.368;6.782;2022-08-04T12:52:57;100948.94;;;29.28;51.66
9257;BME280;4665;51.368;6.782;2022-08-04T12:55:28;100946.75;;;29.30;51.64
9257;BME280;4665;51.368;6.782;2022-08-04T12:57:55;100950.59;;;29.34;52.80
9257;BME280;4665;51.368;6.782;2022-08-04T13:00:34;100948.41;;;29.26;51.58
9257;BME280;4665;51.368;6.782;2022-08-04T13:03:05;100950.06;;;29.22;52.21
9257;BME280;4665;51.368;6.782;2022-08-04T13:05:33;100947.31;;;29.17;50.84
9257;BME280;4665;51.368;6.782;2022-08-04T13:08:00;100941.81;;;29.07;51.46
9257;BME280;4665;51.368;6.782;2022-08-04T13:10:28;100940.19;;;29.06;51.42
9257;BME280;4665;51.368;6.782;2022-08-04T13:12:56;100936.03;;;29.03;51.14
9257;BME280;4665;51.368;6.782;2022-08-04T13:15:24;100941.28;;;29.00;48.95
9257;BME280;4665;51.368;6.782;2022-08-04T13:18:00;100937.16;;;28.97;46.71
9257;BME280;4665;51.368;6.782;2022-08-04T13:20:38;100935.50;;;28.91;47.75
9257;BME280;4665;51.368;6.782;2022-08-04T13:23:12;100934.69;;;28.90;48.01
9257;BME280;4665;51.368;6.782;2022-08-04T13:25:44;100931.13;;;28.90;47.65
9257;BME280;4665;51.368;6.782;2022-08-04T13:28:22;100930.28;;;28.84;47.19
9257;BME280;4665;51.368;6.782;2022-08-04T13:30:53;100925.91;;;28.93;48.59
9257;BME280;4665;51.368;6.782;2022-08-04T13:33:22;100919.59;;;28.88;50.74
9257;BME280;4665;51.368;6.782;2022-08-04T13:35:48;100922.91;;;28.90;48.50
9257;BME280;4665;51.368;6.782;2022-08-04T13:38:16;100926.16;;;28.87;48.25
9257;BME280;4665;51.368;6.782;2022-08-04T13:40:43;100927.53;;;28.84;48.17
9257;BME280;4665;51.368;6.782;2022-08-04T13:43:22;100923.19;;;28.78;48.35
9257;BME280;4665;51.368;6.782;2022-08-04T13:45:49;100917.13;;;28.76;48.06
9257;BME280;4665;51.368;6.782;2022-08-04T13:48:16;100917.41;;;28.74;49.00
9257;BME280;4665;51.368;6.782;2022-08-04T13:50:46;100919.31;;;28.74;49.17
9257;BME280;4665;51.368;6.782;2022-08-04T13:53:12;100924.25;;;28.72;48.97
9257;BME280;4665;51.368;6.782;2022-08-04T13:55:41;100922.31;;;28.72;50.83
9257;BME280;4665;51.368;6.782;2022-08-04T13:58:09;100924.53;;;28.76;49.57
9257;BME280;4665;51.368;6.782;2022-08-04T14:01:02;100925.91;;;28.83;49.34
9257;BME280;4665;51.368;6.782;2022-08-04T14:03:36;100920.72;;;28.92;49.04
9257;BME280;4665;51.368;6.782;2022-08-04T14:08:34;100922.06;;;28.84;48.11
9257;BME280;4665;51.368;6.782;2022-08-04T14:11:01;100920.97;;;28.75;47.59
9257;BME280;4665;51.368;6.782;2022-08-04T14:13:31;100917.13;;;28.71;47.19
9257;BME280;4665;51.368;6.782;2022-08-04T14:15:57;100924.25;;;28.72;46.79
9257;BME280;4665;51.368;6.782;2022-08-04T14:18:28;100921.81;;;28.81;46.68
9257;BME280;4665;51.368;6.782;2022-08-04T14:23:48;100905.63;;;28.74;48.06
9257;BME280;4665;51.368;6.782;2022-08-04T14:26:27;100913.28;;;28.77;49.11
9257;BME280;4665;51.368;6.782;2022-08-04T14:28:55;100915.22;;;28.77;48.42
9257;BME280;4665;51.368;6.782;2022-08-04T14:31:25;100925.06;;;28.78;49.10
9257;BME280;4665;51.368;6.782;2022-08-04T14:33:52;100919.31;;;28.74;48.71
9257;BME280;4665;51.368;6.782;2022-08-04T14:36:19;100930.28;;;28.74;49.02
9257;BME280;4665;51.368;6.782;2022-08-04T14:38:58;100924.81;;;28.79;48.68
9257;BME280;4665;51.368;6.782;2022-08-04T14:41:26;100927.53;;;28.64;49.21
9257;BME280;4665;51.368;6.782;2022-08-04T14:43:57;100918.47;;;28.58;50.25
9257;BME280;4665;51.368;6.782;2022-08-04T14:46:24;100908.63;;;28.57;50.27
9257;BME280;4665;51.368;6.782;2022-08-04T14:49:19;100902.81;;;28.43;50.92
9257;BME280;4665;51.368;6.782;2022-08-04T14:51:59;100908.56;;;28.42;51.02
9257;BME280;4665;51.368;6.782;2022-08-04T14:54:32;100911.00;;;28.33;51.19
9257;BME280;4665;51.368;6.782;2022-08-04T14:57:02;100909.88;;;28.29;51.67
9257;BME280;4665;51.368;6.782;2022-08-04T14:59:41;100910.19;;;28.27;51.62
9257;BME280;4665;51.368;6.782;2022-08-04T15:02:07;100901.66;;;28.24;51.84
9257;BME280;4665;51.368;6.782;2022-08-04T15:04:34;100907.13;;;28.19;52.12
9257;BME280;4665;51.368;6.782;2022-08-04T15:06:59;100899.19;;;28.17;52.94
9257;BME280;4665;51.368;6.782;2022-08-04T15:09:26;100900.28;;;28.21;52.20
9257;BME280;4665;51.368;6.782;2022-08-04T15:11:52;100885.72;;;28.00;51.83
9257;BME280;4665;51.368;6.782;2022-08-04T15:14:19;100904.88;;;28.05;51.90
9257;BME280;4665;51.368;6.782;2022-08-04T15:16:45;100907.03;;;27.93;52.49
9257;BME280;4665;51.368;6.782;2022-08-04T15:19:11;100927.63;;;28.06;52.41
9257;BME280;4665;51.368;6.782;2022-08-04T15:21:37;100924.63;;;28.12;52.74
9257;BME280;4665;51.368;6.782;2022-08-04T15:24:03;100933.13;;;28.06;52.42
9257;BME280;4665;51.368;6.782;2022-08-04T15:26:32;100934.50;;;28.14;53.06
9257;BME280;4665;51.368;6.782;2022-08-04T15:29:10;100942.97;;;28.07;52.97
9257;BME280;4665;51.368;6.782;2022-08-04T15:31:38;100943.75;;;28.02;53.65
9257;BME280;4665;51.368;6.782;2022-08-04T15:34:06;100926.47;;;27.91;53.28
9257;BME280;4665;51.368;6.782;2022-08-04T15:36:51;100928.09;;;27.87;53.49
9257;BME280;4665;51.368;6.782;2022-08-04T15:42:13;100930.56;;;27.89;52.70
9257;BME280;4665;51.368;6.782;2022-08-04T15:47:24;100944.44;;;27.82;53.09
9257;BME280;4665;51.368;6.782;2022-08-04T15:55:36;100929.91;;;27.72;54.28
9257;BME280;4665;51.368;6.782;2022-08-04T16:03:47;100913.94;;;27.53;55.41
9257;BME280;4665;51.368;6.782;2022-08-04T16:27:02;100928.63;;;27.42;58.37
9257;BME280;4665;51.368;6.782;2022-08-04T16:32:12;100923.94;;;27.32;59.05
9257;BME280;4665;51.368;6.782;2022-08-04T16:37:15;100923.69;;;27.39;59.51
9257;BME280;4665;51.368;6.782;2022-08-04T16:39:42;100917.91;;;27.35;59.86
9257;BME280;4665;51.368;6.782;2022-08-04T16:50:13;100921.94;;;27.22;60.41
9257;BME280;4665;51.368;6.782;2022-08-04T16:52:50;100933.97;;;27.26;60.02
9257;BME280;4665;51.368;6.782;2022-08-04T16:55:22;100930.19;;;27.27;59.56
9257;BME280;4665;51.368;6.782;2022-08-04T16:57:49;100927.72;;;27.31;59.28
9257;BME280;4665;51.368;6.782;2022-08-04T17:00:16;100924.59;;;27.17;58.14
9257;BME280;4665;51.368;6.782;2022-08-04T17:02:42;100925.69;;;27.16;58.69
9257;BME280;4665;51.368;6.782;2022-08-04T17:05:22;100931.06;;;27.06;59.63
9257;BME280;4665;51.368;6.782;2022-08-04T17:07:52;100914.41;;;27.07;59.63
9257;BME280;4665;51.368;6.782;2022-08-04T17:10:19;100925.59;;;27.06;59.12
9257;BME280;4665;51.368;6.782;2022-08-04T17:12:44;100916.75;;;26.94;58.10
9257;BME280;4665;51.368;6.782;2022-08-04T17:15:21;100927.69;;;26.94;57.52
9257;BME280;4665;51.368;6.782;2022-08-04T17:17:47;100913.16;;;26.88;58.56
9257;BME280;4665;51.368;6.782;2022-08-04T17:20:12;100921.94;;;26.90;58.28
9257;BME280;4665;51.368;6.782;2022-08-04T17:22:37;100910.44;;;26.88;58.36
9257;BME280;4665;51.368;6.782;2022-08-04T17:25:03;100914.59;;;26.96;57.86
9257;BME280;4665;51.368;6.782;2022-08-04T17:27:29;100899.75;;;26.86;58.11
9257;BME280;4665;51.368;6.782;2022-08-04T17:29:54;100911.94;;;26.74;59.50
9257;BME280;4665;51.368;6.782;2022-08-04T17:32:20;100914.38;;;26.70;58.25
9257;BME280;4665;51.368;6.782;2022-08-04T17:34:51;100899.84;;;26.64;58.29
9257;BME280;4665;51.368;6.782;2022-08-04T17:37:17;100909.50;;;26.77;59.06
9257;BME280;4665;51.368;6.782;2022-08-04T17:39:48;100915.78;;;26.78;59.21
9257;BME280;4665;51.368;6.782;2022-08-04T17:42:29;100919.63;;;26.77;59.36